createdAt,value
2022-10-06T00:00:41.056Z,2.17
2022-10-06T00:03:08.336Z,2.08
2022-10-06T00:05:35.764Z,2.00
2022-10-06T00:08:03.327Z,1.67
2022-10-06T00:10:31.124Z,1.77
2022-10-06T00:12:58.478Z,2.17
2022-10-06T00:15:29.104Z,2.28
2022-10-06T00:17:57.041Z,2.47
2022-10-06T00:20:25.557Z,1.85
2022-10-06T00:22:53.001Z,2.17
2022-10-06T00:25:22.761Z,1.83
2022-10-06T00:27:52.627Z,1.33
2022-10-06T00:30:23.423Z,1.95
2022-10-06T00:32:52.316Z,1.80
2022-10-06T00:35:20.062Z,1.83
2022-10-06T00:37:48.333Z,2.65
2022-10-06T00:40:15.968Z,2.00
2022-10-06T00:42:56.466Z,1.50
2022-10-06T00:45:38.330Z,1.80
2022-10-06T00:48:13.107Z,2.20
2022-10-06T00:50:41.394Z,1.80
2022-10-06T00:53:08.758Z,1.52
2022-10-06T00:55:36.088Z,1.55
2022-10-06T00:58:03.799Z,1.70
2022-10-06T01:00:31.512Z,1.88
2022-10-06T01:03:07.692Z,1.60
2022-10-06T01:05:40.197Z,1.95
2022-10-06T01:08:07.637Z,1.77
2022-10-06T01:10:35.034Z,1.77
2022-10-06T01:13:02.770Z,1.45
2022-10-06T01:15:30.130Z,1.90
2022-10-06T01:18:03.078Z,1.75
2022-10-06T01:20:30.925Z,1.38
2022-10-06T01:23:06.407Z,1.30
2022-10-06T01:25:35.198Z,1.02
2022-10-06T01:28:03.897Z,1.27
2022-10-06T01:30:35.845Z,1.00
2022-10-06T01:33:03.298Z,0.68
2022-10-06T01:35:31.917Z,1.08
2022-10-06T01:38:00.510Z,1.45
2022-10-06T01:40:30.271Z,1.08
2022-10-06T01:43:01.067Z,0.93
2022-10-06T01:45:29.012Z,1.02
2022-10-06T01:47:56.411Z,1.02
2022-10-06T01:50:23.831Z,1.10
2022-10-06T01:52:51.225Z,1.05
2022-10-06T01:55:19.472Z,0.85
2022-10-06T01:57:47.116Z,0.90
2022-10-06T02:00:14.741Z,0.88
2022-10-06T02:02:43.467Z,1.27
2022-10-06T02:05:10.915Z,0.68
2022-10-06T02:07:42.472Z,0.43
2022-10-06T02:10:13.162Z,0.57
2022-10-06T02:12:40.870Z,0.98
2022-10-06T02:15:11.130Z,0.63
2022-10-06T02:17:39.175Z,0.68
2022-10-06T02:20:06.947Z,0.85
2022-10-06T02:22:38.092Z,0.50
2022-10-06T02:25:05.687Z,0.50
2022-10-06T02:27:33.073Z,0.63
2022-10-06T02:30:01.848Z,0.65
2022-10-06T02:32:35.387Z,0.70
2022-10-06T02:35:04.188Z,0.73
2022-10-06T02:37:32.027Z,0.63
2022-10-06T02:40:00.738Z,0.68
2022-10-06T02:42:29.895Z,0.70
2022-10-06T02:44:59.033Z,0.60
2022-10-06T02:47:26.569Z,0.68
2022-10-06T02:49:54.430Z,0.70
2022-10-06T02:52:22.040Z,0.55
2022-10-06T02:54:50.757Z,0.40
2022-10-06T02:57:18.142Z,0.73
2022-10-06T02:59:45.614Z,0.52
2022-10-06T03:02:13.134Z,0.93
2022-10-06T03:04:40.878Z,0.70
2022-10-06T03:07:08.347Z,1.08
2022-10-06T03:09:37.931Z,0.63
2022-10-06T03:12:05.586Z,0.55
2022-10-06T03:14:37.812Z,0.52
2022-10-06T03:17:09.982Z,0.60
2022-10-06T03:19:42.643Z,0.30
2022-10-06T03:22:10.694Z,0.43
2022-10-06T03:24:46.375Z,0.50
2022-10-06T03:27:13.776Z,0.60
2022-10-06T03:29:41.154Z,0.43
2022-10-06T03:32:08.598Z,0.40
2022-10-06T03:34:37.665Z,0.60
2022-10-06T03:37:08.089Z,0.68
2022-10-06T03:39:35.438Z,0.75
2022-10-06T03:42:02.906Z,0.73
2022-10-06T03:44:32.316Z,0.47
2022-10-06T03:46:59.889Z,0.70
2022-10-06T03:49:27.336Z,0.55
2022-10-06T03:51:55.098Z,0.70
2022-10-06T03:54:27.104Z,0.95
2022-10-06T03:56:54.833Z,0.70
2022-10-06T03:59:22.307Z,1.00
2022-10-06T04:01:52.992Z,1.30
2022-10-06T04:04:27.723Z,0.95
2022-10-06T04:07:00.517Z,1.13
2022-10-06T04:09:27.922Z,1.35
2022-10-06T04:11:57.036Z,0.90
2022-10-06T04:14:24.513Z,1.63
2022-10-06T04:16:52.621Z,1.40
2022-10-06T04:19:28.974Z,0.70
2022-10-06T04:21:56.854Z,1.58
2022-10-06T04:24:25.849Z,1.30
2022-10-06T04:26:53.822Z,1.08
2022-10-06T04:29:22.683Z,1.15
2022-10-06T04:31:56.050Z,1.52
2022-10-06T04:34:29.079Z,1.48
2022-10-06T04:36:56.434Z,1.83
2022-10-06T04:39:23.749Z,1.35
2022-10-06T04:41:51.400Z,1.38
2022-10-06T04:44:23.328Z,1.30
2022-10-06T04:46:51.474Z,2.47
2022-10-06T04:49:21.038Z,1.23
2022-10-06T04:51:51.841Z,1.70
2022-10-06T04:54:19.844Z,1.60
2022-10-06T04:56:50.783Z,1.58
2022-10-06T04:59:20.566Z,1.67
2022-10-06T05:01:48.994Z,1.33
2022-10-06T05:04:16.465Z,1.40
2022-10-06T05:06:43.899Z,2.35
2022-10-06T05:09:15.831Z,2.95
2022-10-06T05:11:50.904Z,2.25
2022-10-06T05:14:20.886Z,1.88
2022-10-06T05:16:49.961Z,2.00
2022-10-06T05:19:17.653Z,1.65
2022-10-06T05:21:45.157Z,1.20
2022-10-06T05:24:17.472Z,1.50
2022-10-06T05:26:44.899Z,2.65
2022-10-06T05:29:14.913Z,1.40
2022-10-06T05:31:43.658Z,1.60
2022-10-06T05:34:14.132Z,1.73
2022-10-06T05:36:41.709Z,1.63
2022-10-06T05:39:11.858Z,1.77
2022-10-06T05:41:46.570Z,1.50
2022-10-06T05:44:14.838Z,2.22
2022-10-06T05:46:44.200Z,1.95
2022-10-06T05:49:13.054Z,1.20
2022-10-06T05:51:49.054Z,2.10
2022-10-06T05:54:21.371Z,1.73
2022-10-06T05:56:49.636Z,2.50
2022-10-06T05:59:17.309Z,1.25
2022-10-06T06:01:44.948Z,2.17
2022-10-06T06:04:23.084Z,2.20
2022-10-06T06:06:53.372Z,2.03
2022-10-06T06:09:23.212Z,2.03
2022-10-06T06:11:53.704Z,1.73
2022-10-06T06:14:59.959Z,2.92
2022-10-06T06:17:33.412Z,2.22
2022-10-06T06:20:03.119Z,1.98
2022-10-06T06:22:30.699Z,1.83
2022-10-06T06:24:58.680Z,1.98
2022-10-06T06:27:26.321Z,2.15
2022-10-06T06:29:54.706Z,2.03
2022-10-06T06:32:22.201Z,2.50
2022-10-06T06:34:51.052Z,1.85
2022-10-06T06:37:18.513Z,1.90
2022-10-06T06:39:47.598Z,2.72
2022-10-06T06:42:15.235Z,1.92
2022-10-06T06:44:48.975Z,2.03
2022-10-06T06:47:26.710Z,1.60
2022-10-06T06:49:55.034Z,2.25
2022-10-06T06:52:26.967Z,2.42
2022-10-06T06:54:57.202Z,2.15
2022-10-06T06:57:25.708Z,2.13
2022-10-06T06:59:57.063Z,2.60
2022-10-06T07:02:29.662Z,2.05
2022-10-06T07:04:57.795Z,1.92
2022-10-06T07:07:25.176Z,1.80
2022-10-06T07:09:52.805Z,1.40
2022-10-06T07:12:22.641Z,2.55
2022-10-06T07:15:12.886Z,2.30
2022-10-06T07:18:02.319Z,1.73
2022-10-06T07:21:03.178Z,2.53
2022-10-06T07:23:49.345Z,2.25
2022-10-06T07:26:20.053Z,2.00
2022-10-06T07:28:49.584Z,2.33
2022-10-06T07:31:19.186Z,2.05
2022-10-06T07:33:47.939Z,1.98
2022-10-06T07:36:16.762Z,1.88
2022-10-06T07:38:44.661Z,2.10
2022-10-06T07:41:19.255Z,3.25
2022-10-06T07:44:02.470Z,1.98
2022-10-06T07:46:33.887Z,1.80
2022-10-06T07:49:18.189Z,2.40
2022-10-06T07:51:45.921Z,2.00
2022-10-06T07:54:13.589Z,2.40
2022-10-06T07:56:56.154Z,3.10
2022-10-06T07:59:23.493Z,2.00
2022-10-06T08:01:52.667Z,2.80
2022-10-06T08:04:20.127Z,2.85
2022-10-06T08:06:49.474Z,2.10
2022-10-06T08:09:16.838Z,2.13
2022-10-06T08:11:45.138Z,1.73
2022-10-06T08:14:15.041Z,1.67
2022-10-06T08:16:42.492Z,2.47
2022-10-06T08:19:11.643Z,1.35
2022-10-06T08:21:39.620Z,2.33
2022-10-06T08:24:07.252Z,1.98
2022-10-06T08:26:34.664Z,2.17
2022-10-06T08:29:03.646Z,2.15
2022-10-06T08:31:32.020Z,1.92
2022-10-06T08:33:59.698Z,1.90
2022-10-06T08:36:31.591Z,2.67
2022-10-06T08:39:00.228Z,2.70
2022-10-06T08:41:51.193Z,1.60
2022-10-06T08:44:19.632Z,2.28
2022-10-06T08:47:02.994Z,3.00
2022-10-06T08:49:40.731Z,2.28
2022-10-06T08:52:29.704Z,2.42
2022-10-06T08:54:58.962Z,1.90
2022-10-06T08:57:26.329Z,1.83
2022-10-06T08:59:54.140Z,1.52
2022-10-06T09:02:21.851Z,2.00
2022-10-06T09:04:51.167Z,2.38
2022-10-06T09:07:23.906Z,2.53
2022-10-06T09:10:03.326Z,1.52
2022-10-06T09:12:41.907Z,1.90
2022-10-06T09:15:19.265Z,1.55
2022-10-06T09:17:50.405Z,1.63
2022-10-06T09:20:39.851Z,1.95
2022-10-06T09:23:17.103Z,1.43
2022-10-06T09:25:44.931Z,1.83
2022-10-06T09:28:15.983Z,1.38
2022-10-06T09:30:44.003Z,2.20
2022-10-06T09:33:16.673Z,1.55
2022-10-06T09:36:09.912Z,1.75
2022-10-06T09:38:47.737Z,1.75
2022-10-06T09:41:16.015Z,1.58
2022-10-06T09:44:03.491Z,2.05
2022-10-06T09:46:32.264Z,1.90
2022-10-06T09:49:37.854Z,1.85
2022-10-06T09:52:16.209Z,1.67
2022-10-06T09:54:44.920Z,1.65
2022-10-06T09:57:26.485Z,1.52
2022-10-06T09:59:54.342Z,2.10
2022-10-06T10:02:21.832Z,1.65
2022-10-06T10:04:54.643Z,1.60
2022-10-06T10:07:24.342Z,1.75
2022-10-06T10:09:52.128Z,1.75
2022-10-06T10:12:31.191Z,1.58
2022-10-06T10:14:58.873Z,2.15
2022-10-06T10:17:39.498Z,1.63
2022-10-06T10:20:31.845Z,1.65
2022-10-06T10:23:02.270Z,1.77
2022-10-06T10:25:47.655Z,1.60
2022-10-06T10:28:17.422Z,1.75
2022-10-06T10:30:48.779Z,1.73
2022-10-06T10:33:18.421Z,1.50
2022-10-06T10:35:51.109Z,2.22
2022-10-06T10:38:22.787Z,2.08
2022-10-06T10:40:55.449Z,2.10
2022-10-06T10:43:44.002Z,2.33
2022-10-06T10:46:32.968Z,1.83
2022-10-06T10:49:29.884Z,1.58
2022-10-06T10:52:24.077Z,1.63
2022-10-06T10:55:19.705Z,1.48
2022-10-06T10:57:47.915Z,2.22
2022-10-06T11:00:21.272Z,2.00
2022-10-06T11:02:48.842Z,1.70
2022-10-06T11:05:38.968Z,2.08
2022-10-06T11:08:06.383Z,2.03
2022-10-06T11:10:57.028Z,1.70
2022-10-06T11:13:39.394Z,2.20
2022-10-06T11:16:25.506Z,2.10
2022-10-06T11:19:05.580Z,2.20
2022-10-06T11:21:55.233Z,1.67
2022-10-06T11:25:00.051Z,1.70
2022-10-06T11:27:50.691Z,1.58
2022-10-06T11:30:20.047Z,1.90
2022-10-06T11:33:28.635Z,1.58
2022-10-06T11:35:56.460Z,1.50
2022-10-06T11:38:40.350Z,1.83
2022-10-06T11:41:16.232Z,2.00
2022-10-06T11:44:00.704Z,1.55
2022-10-06T11:46:42.692Z,1.75
2022-10-06T11:49:33.492Z,1.77
2022-10-06T11:52:08.331Z,2.25
2022-10-06T11:54:38.832Z,1.58
2022-10-06T11:57:30.210Z,2.17
2022-10-06T12:00:17.384Z,2.38
2022-10-06T12:02:46.138Z,1.73
2022-10-06T12:05:45.902Z,1.80
2022-10-06T12:08:01.539Z,1.58
2022-10-06T12:10:28.928Z,2.00
2022-10-06T12:13:06.672Z,1.80
2022-10-06T12:18:46.113Z,1.70
2022-10-06T12:21:19.274Z,1.70
2022-10-06T12:23:58.757Z,3.47
2022-10-06T12:26:34.750Z,1.27
2022-10-06T12:29:02.206Z,1.88
2022-10-06T12:31:29.545Z,1.38
2022-10-06T12:33:57.101Z,1.35
2022-10-06T12:36:31.350Z,1.42
2022-10-06T12:39:07.131Z,1.60
2022-10-06T12:41:55.745Z,1.48
2022-10-06T12:44:45.592Z,1.30
2022-10-06T12:47:16.171Z,2.28
2022-10-06T12:49:56.728Z,1.58
2022-10-06T12:52:24.169Z,1.90
2022-10-06T12:55:08.131Z,1.83
2022-10-06T12:57:49.364Z,1.35
2022-10-06T13:00:33.155Z,2.00
2022-10-06T13:03:02.645Z,1.55
2022-10-06T13:05:31.165Z,1.50
2022-10-06T13:08:04.820Z,1.60
2022-10-06T13:10:33.120Z,1.50
2022-10-06T13:13:01.023Z,1.63
2022-10-06T13:15:34.678Z,1.42
2022-10-06T13:18:02.184Z,2.10
2022-10-06T13:20:41.953Z,1.40
2022-10-06T13:23:11.838Z,2.08
2022-10-06T13:25:47.407Z,1.42
2022-10-06T13:28:36.575Z,1.10
2022-10-06T13:31:12.370Z,1.40
2022-10-06T13:33:41.549Z,1.17
2022-10-06T13:36:09.216Z,1.17
2022-10-06T13:38:37.931Z,2.00
2022-10-06T13:41:08.323Z,1.38
2022-10-06T13:43:44.637Z,1.35
2022-10-06T13:46:15.013Z,1.58
2022-10-06T13:48:56.480Z,1.73
2022-10-06T13:51:29.779Z,1.48
2022-10-06T13:53:59.336Z,1.60
2022-10-06T13:59:28.507Z,1.70
2022-10-06T14:02:02.076Z,1.83
2022-10-06T14:04:29.620Z,1.40
2022-10-06T14:07:00.857Z,1.58
2022-10-06T14:09:32.196Z,1.67
2022-10-06T14:12:11.705Z,1.13
2022-10-06T14:14:40.182Z,2.00
2022-10-06T14:17:07.968Z,1.70
2022-10-06T14:19:39.034Z,1.85
2022-10-06T14:22:30.045Z,1.55
2022-10-06T14:24:58.290Z,1.45
2022-10-06T14:27:26.537Z,1.50
2022-10-06T14:29:54.863Z,1.40
2022-10-06T14:32:22.758Z,1.60
2022-10-06T14:34:50.746Z,1.60
2022-10-06T14:37:19.826Z,1.53
2022-10-06T14:39:47.410Z,1.23
2022-10-06T14:42:15.487Z,1.30
2022-10-06T14:44:43.359Z,1.55
2022-10-06T14:47:11.230Z,1.60
2022-10-06T14:49:38.638Z,1.55
2022-10-06T14:52:07.125Z,1.80
2022-10-06T14:54:35.129Z,1.45
2022-10-06T14:57:02.710Z,1.13
2022-10-06T14:59:30.281Z,1.52
2022-10-06T15:01:57.713Z,1.40
2022-10-06T15:04:26.393Z,1.80
2022-10-06T15:07:12.628Z,1.00
2022-10-06T15:09:39.993Z,1.50
2022-10-06T15:12:07.322Z,1.80
2022-10-06T15:14:39.487Z,1.38
2022-10-06T15:17:06.868Z,1.50
2022-10-06T15:19:34.292Z,1.40
2022-10-06T15:22:01.800Z,1.58
2022-10-06T15:24:29.136Z,1.98
2022-10-06T15:27:15.381Z,1.88
2022-10-06T15:29:42.738Z,1.80
2022-10-06T15:32:10.129Z,1.92
2022-10-06T15:34:37.975Z,1.60
2022-10-06T15:37:05.768Z,2.85
2022-10-06T15:39:35.612Z,1.52
2022-10-06T15:42:03.561Z,1.60
2022-10-06T15:44:35.274Z,1.45
2022-10-06T15:47:05.507Z,1.25
2022-10-06T15:52:06.004Z,1.75
2022-10-06T15:54:39.052Z,1.30
2022-10-06T15:57:09.515Z,1.52
2022-10-06T16:02:07.683Z,1.45
2022-10-06T16:04:40.301Z,1.98
2022-10-06T16:07:09.078Z,1.80
2022-10-06T16:09:43.035Z,1.40
2022-10-06T16:12:12.863Z,1.70
2022-10-06T16:14:40.467Z,1.40
2022-10-06T16:17:08.114Z,1.58
2022-10-06T16:19:37.097Z,1.98
2022-10-06T16:22:05.703Z,1.52
2022-10-06T16:24:33.075Z,1.77
2022-10-06T16:27:00.704Z,1.67
2022-10-06T16:29:28.527Z,1.20
2022-10-06T16:31:56.320Z,1.50
2022-10-06T16:34:25.493Z,1.83
2022-10-06T16:36:52.879Z,1.75
2022-10-06T16:39:21.984Z,1.48
2022-10-06T16:41:49.813Z,1.73
2022-10-06T16:44:17.987Z,1.75
2022-10-06T16:46:45.615Z,1.48
2022-10-06T16:49:13.372Z,1.63
2022-10-06T16:51:42.890Z,1.98
2022-10-06T16:54:12.066Z,1.80
2022-10-06T16:56:47.487Z,2.10
2022-10-06T16:59:26.123Z,1.73
2022-10-06T17:01:53.538Z,3.47
2022-10-06T17:04:23.220Z,1.80
2022-10-06T17:06:55.435Z,1.45
2022-10-06T17:09:25.396Z,1.77
2022-10-06T17:14:23.911Z,2.60
2022-10-06T17:16:52.599Z,2.30
2022-10-06T17:19:21.529Z,1.70
2022-10-06T17:21:52.725Z,2.53
2022-10-06T17:24:25.658Z,2.35
2022-10-06T17:26:53.034Z,1.90
2022-10-06T17:29:21.843Z,2.20
2022-10-06T17:31:50.525Z,2.45
2022-10-06T17:34:21.862Z,2.10
2022-10-06T17:36:51.609Z,2.10
2022-10-06T17:39:20.632Z,2.22
2022-10-06T17:41:48.940Z,2.13
2022-10-06T17:44:22.809Z,2.83
2022-10-06T17:46:51.810Z,2.60
2022-10-06T17:49:20.845Z,4.47
2022-10-06T17:51:48.555Z,3.25
2022-10-06T17:54:19.209Z,2.72
2022-10-06T17:56:48.728Z,3.30
2022-10-06T17:59:22.400Z,3.03
2022-10-06T18:01:51.782Z,2.15
2022-10-06T18:04:19.699Z,2.47
2022-10-06T18:06:47.419Z,2.70
2022-10-06T18:09:15.579Z,2.28
2022-10-06T18:11:44.430Z,3.13
2022-10-06T18:14:12.418Z,2.63
2022-10-06T18:16:57.587Z,2.72
2022-10-06T18:19:30.628Z,2.42
2022-10-06T18:22:07.954Z,3.08
2022-10-06T18:24:35.334Z,2.70
2022-10-06T18:27:02.858Z,3.17
2022-10-06T18:29:33.287Z,2.53
2022-10-06T18:33:40.244Z,4.18
2022-10-06T18:37:36.156Z,2.60
2022-10-06T18:40:06.239Z,2.47
2022-10-06T18:42:33.775Z,2.40
2022-10-06T18:45:19.738Z,2.60
2022-10-06T18:48:05.951Z,2.83
2022-10-06T18:50:34.242Z,4.05
2022-10-06T18:53:01.802Z,4.70
2022-10-06T18:55:29.854Z,4.45
2022-10-06T18:57:57.384Z,4.50
2022-10-06T19:00:26.045Z,4.55
2022-10-06T19:02:55.586Z,5.07
2022-10-06T19:05:23.417Z,4.43
2022-10-06T19:07:52.837Z,3.95
2022-10-06T19:10:20.157Z,3.63
2022-10-06T19:12:48.432Z,3.83
2022-10-06T19:15:20.454Z,2.97
2022-10-06T19:17:48.821Z,3.80
2022-10-06T19:20:16.474Z,3.05
2022-10-06T19:22:51.352Z,4.00
2022-10-06T19:25:19.750Z,3.55
2022-10-06T19:27:51.195Z,3.55
2022-10-06T19:30:18.555Z,3.95
2022-10-06T19:32:46.141Z,3.80
2022-10-06T19:35:13.527Z,3.42
2022-10-06T19:37:41.496Z,3.08
2022-10-06T19:40:11.206Z,3.30
2022-10-06T19:42:47.778Z,3.40
2022-10-06T19:45:16.040Z,3.10
2022-10-06T19:47:44.856Z,2.47
2022-10-06T19:50:13.064Z,3.35
2022-10-06T19:52:43.671Z,2.55
2022-10-06T19:55:11.119Z,2.75
2022-10-06T19:57:38.489Z,3.10
2022-10-06T20:00:06.795Z,2.88
2022-10-06T20:02:42.888Z,2.53
2022-10-06T20:05:12.088Z,2.25
2022-10-06T20:07:39.546Z,2.88
2022-10-06T20:10:07.011Z,2.72
2022-10-06T20:12:35.167Z,2.60
2022-10-06T20:15:02.483Z,3.42
2022-10-06T20:17:29.849Z,2.60
2022-10-06T20:19:58.074Z,3.13
2022-10-06T20:22:26.489Z,2.70
2022-10-06T20:24:54.012Z,2.35
2022-10-06T20:27:21.594Z,2.63
2022-10-06T20:29:48.926Z,2.75
2022-10-06T20:32:16.373Z,2.33
2022-10-06T20:34:44.372Z,2.58
2022-10-06T20:37:11.753Z,2.83
2022-10-06T20:39:57.854Z,2.33
2022-10-06T20:42:27.947Z,2.78
2022-10-06T20:44:55.270Z,2.63
2022-10-06T20:47:23.397Z,3.03
2022-10-06T20:49:55.033Z,3.45
2022-10-06T20:52:23.940Z,2.80
2022-10-06T20:54:51.403Z,3.25
2022-10-06T20:57:18.805Z,2.60
2022-10-06T20:59:46.225Z,3.03
2022-10-06T21:02:13.809Z,3.03
2022-10-06T21:04:43.703Z,2.40
2022-10-06T21:07:11.374Z,2.40
2022-10-06T21:09:38.805Z,2.50
2022-10-06T21:12:06.722Z,2.42
2022-10-06T21:14:37.654Z,2.70
2022-10-06T21:17:05.542Z,2.13
2022-10-06T21:19:38.066Z,2.60
2022-10-06T21:22:05.673Z,2.42
2022-10-06T21:24:33.174Z,2.58
2022-10-06T21:27:00.642Z,1.92
2022-10-06T21:29:28.150Z,1.90
2022-10-06T21:31:55.669Z,2.00
2022-10-06T21:34:23.184Z,2.35
2022-10-06T21:36:50.718Z,2.00
2022-10-06T21:39:18.239Z,1.77
2022-10-06T21:41:45.751Z,2.15
2022-10-06T21:44:14.096Z,1.80
2022-10-06T21:46:42.992Z,1.60
2022-10-06T21:49:11.856Z,1.80
2022-10-06T21:51:41.036Z,1.95
2022-10-06T21:54:10.559Z,2.20
2022-10-06T21:56:38.176Z,2.40
2022-10-06T21:59:05.912Z,2.55
2022-10-06T22:01:34.898Z,2.28
2022-10-06T22:04:02.532Z,2.72
2022-10-06T22:06:31.252Z,2.47
2022-10-06T22:08:59.385Z,2.63
2022-10-06T22:11:28.493Z,2.00
2022-10-06T22:13:57.161Z,2.08
2022-10-06T22:16:27.935Z,2.65
2022-10-06T22:18:55.628Z,2.30
2022-10-06T22:21:33.401Z,2.20
2022-10-06T22:24:05.247Z,2.63
2022-10-06T22:26:34.663Z,2.47
2022-10-06T22:29:02.198Z,2.10
2022-10-06T22:31:31.116Z,2.10
2022-10-06T22:33:59.790Z,1.95
2022-10-06T22:36:28.254Z,2.58
2022-10-06T22:38:56.268Z,2.35
2022-10-06T22:41:24.172Z,2.65
2022-10-06T22:43:58.463Z,2.50
2022-10-06T22:46:30.158Z,2.13
2022-10-06T22:48:58.004Z,2.38
2022-10-06T22:51:26.007Z,2.15
2022-10-06T22:53:58.818Z,2.42
2022-10-06T22:56:30.062Z,2.30
2022-10-06T22:59:00.690Z,1.90
2022-10-06T23:01:28.649Z,2.20
2022-10-06T23:03:56.470Z,1.77
2022-10-06T23:06:24.708Z,2.47
2022-10-06T23:08:52.406Z,2.88
2022-10-06T23:11:21.101Z,2.15
2022-10-06T23:13:50.573Z,1.90
2022-10-06T23:16:19.600Z,2.10
2022-10-06T23:18:47.315Z,2.65
2022-10-06T23:21:19.354Z,2.78
2022-10-06T23:23:47.061Z,2.60
2022-10-06T23:26:15.873Z,3.58
2022-10-06T23:28:43.660Z,3.10
2022-10-06T23:31:11.881Z,2.75
2022-10-06T23:33:39.888Z,1.80
2022-10-06T23:36:09.113Z,1.90
2022-10-06T23:38:37.642Z,2.70
2022-10-06T23:41:06.218Z,2.17
2022-10-06T23:43:34.068Z,2.10
2022-10-06T23:46:01.635Z,2.13
2022-10-06T23:48:29.414Z,2.40
2022-10-06T23:51:04.814Z,2.17
2022-10-06T23:53:32.791Z,1.92
2022-10-06T23:56:00.454Z,2.22
2022-10-06T23:58:28.266Z,1.70
